Time;durP1;ratioP1;P1;durP2;ratioP2;P2;SDS_P1;SDS_P2;PMS_P1;PMS_P2;Temp;Humidity;BMP_temperature;BMP_pressure;BME280_temperature;BME280_humidity;BME280_pressure;Samples;Min_cycle;Max_cycle;Signal;HPM_P1;HPM_P2
2020/12/24 00:02:05;;;;;;;22.30;13.90;;;23.10;42.20;;;;;;6175252;27;83364;-52
2020/12/24 00:05:06;;;;;;;19.17;12.40;;;23.10;42.20;;;;;;6175326;28;83087;-51
2020/12/24 00:08:06;;;;;;;18.73;12.27;;;23.10;42.70;;;;;;6176816;27;83029;-51
2020/12/24 00:11:08;;;;;;;17.95;11.48;;;23.10;42.40;;;;;;6176714;28;83316;-50
2020/12/24 00:14:08;;;;;;;20.83;11.63;;;23.10;42.10;;;;;;6177598;28;83223;-52
2020/12/24 00:17:09;;;;;;;20.42;12.10;;;23.10;42.70;;;;;;6176084;28;84386;-53
2020/12/24 00:20:09;;;;;;;20.95;13.02;;;23.10;42.50;;;;;;6177247;28;83414;-52
2020/12/24 00:23:10;;;;;;;18.27;12.65;;;23.10;42.20;;;;;;6189025;28;83406;-50
2020/12/24 00:26:10;;;;;;;17.70;11.63;;;23.10;42.30;;;;;;6168833;27;83223;-52
2020/12/24 00:29:11;;;;;;;18.90;11.43;;;23.10;42.30;;;;;;6179688;28;85593;-54
2020/12/24 00:32:12;;;;;;;20.92;12.50;;;23.10;42.80;;;;;;6174273;27;83550;-54
2020/12/24 00:35:12;;;;;;;17.38;11.15;;;23.10;42.50;;;;;;6178458;28;83468;-54
2020/12/24 00:38:13;;;;;;;19.33;11.23;;;23.10;42.50;;;;;;6181735;28;83360;-55
2020/12/24 00:41:13;;;;;;;17.25;10.77;;;23.10;42.50;;;;;;6177501;27;83622;-54
2020/12/24 00:44:14;;;;;;;18.35;11.35;;;23.10;42.40;;;;;;6185826;28;82874;-54
2020/12/24 00:47:14;;;;;;;19.83;12.40;;;23.10;42.60;;;;;;6176960;27;84110;-53
2020/12/24 00:50:15;;;;;;;17.35;11.05;;;23.00;42.30;;;;;;6173639;28;84316;-52
2020/12/24 00:53:15;;;;;;;17.17;11.30;;;23.00;42.40;;;;;;6180088;28;83523;-52
2020/12/24 00:56:16;;;;;;;18.67;11.63;;;23.00;42.30;;;;;;6181422;28;83935;-50
2020/12/24 00:59:29;;;;;;;15.73;10.55;;;23.00;42.30;;;;;;6182232;28;85955;-52
2020/12/24 01:02:29;;;;;;;16.35;10.60;;;23.00;42.50;;;;;;6183923;28;83454;-48
2020/12/24 01:05:31;;;;;;;20.27;12.05;;;23.00;42.20;;;;;;6181995;27;83413;-50
2020/12/24 01:08:31;;;;;;;20.17;12.30;;;23.00;42.20;;;;;;6183761;28;83220;-49
2020/12/24 01:11:32;;;;;;;18.48;11.60;;;23.00;41.90;;;;;;6179323;27;83309;-52
2020/12/24 01:14:32;;;;;;;21.25;11.55;;;23.00;42.00;;;;;;6181484;28;82927;-53
2020/12/24 01:17:33;;;;;;;17.63;11.43;;;23.00;42.10;;;;;;6178785;28;85390;-50
2020/12/24 01:20:33;;;;;;;18.08;11.45;;;23.00;42.10;;;;;;6186700;28;83236;-53
2020/12/24 01:23:34;;;;;;;17.85;11.88;;;23.00;41.90;;;;;;6185511;28;83307;-55
2020/12/24 01:26:34;;;;;;;19.48;11.77;;;23.00;41.80;;;;;;6179471;28;84018;-53
2020/12/24 01:29:35;;;;;;;16.88;10.60;;;23.00;42.10;;;;;;6179839;27;85360;-54
2020/12/24 01:32:35;;;;;;;14.90;10.25;;;23.00;42.50;;;;;;6184462;28;82957;-54
2020/12/24 01:35:36;;;;;;;16.08;9.82;;;23.00;42.50;;;;;;6182823;27;83390;-54
2020/12/24 01:38:36;;;;;;;19.92;10.98;;;23.00;42.80;;;;;;6190015;28;82897;-52
2020/12/24 01:41:37;;;;;;;16.63;10.38;;;23.00;42.70;;;;;;6187558;27;84139;-53
2020/12/24 01:44:37;;;;;;;16.33;11.25;;;22.90;42.50;;;;;;6181675;28;83426;-50
2020/12/24 01:47:38;;;;;;;17.92;10.25;;;23.00;42.60;;;;;;6178566;28;86628;-51
2020/12/24 01:50:38;;;;;;;19.13;11.90;;;23.00;42.60;;;;;;6178094;28;83437;-52
2020/12/24 01:53:39;;;;;;;17.08;10.48;;;23.00;42.70;;;;;;6182664;28;83085;-53
2020/12/24 01:56:40;;;;;;;17.30;10.82;;;23.00;42.50;;;;;;6180200;27;83202;-50
2020/12/24 01:59:40;;;;;;;19.15;10.98;;;23.00;42.10;;;;;;6178160;28;83267;-53
2020/12/24 02:02:41;;;;;;;15.55;10.23;;;23.00;42.10;;;;;;6180437;28;83049;-56
2020/12/24 02:05:41;;;;;;;18.80;11.10;;;23.00;42.40;;;;;;6183691;28;83635;-54
2020/12/24 02:08:42;;;;;;;15.95;10.27;;;23.00;42.10;;;;;;6177245;28;83471;-53
2020/12/24 02:11:42;;;;;;;17.80;10.27;;;23.00;42.30;;;;;;6180297;28;84139;-53
2020/12/24 02:14:43;;;;;;;19.50;11.32;;;23.00;42.60;;;;;;6179165;28;89585;-54
2020/12/24 02:17:43;;;;;;;16.10;10.43;;;23.00;42.40;;;;;;6183450;27;85512;-50
2020/12/24 02:20:44;;;;;;;16.65;10.15;;;23.00;42.40;;;;;;6180571;28;83376;-52
2020/12/24 02:23:44;;;;;;;18.98;10.45;;;22.90;42.10;;;;;;6172910;28;83155;-52
2020/12/24 02:26:45;;;;;;;19.30;10.65;;;23.00;42.00;;;;;;6176134;28;86004;-51
2020/12/24 02:29:45;;;;;;;16.80;10.93;;;23.00;42.00;;;;;;6185561;28;82876;-54
2020/12/24 02:32:46;;;;;;;16.77;10.30;;;22.90;42.00;;;;;;6183089;28;83244;-52
2020/12/24 02:35:47;;;;;;;20.17;10.50;;;22.90;41.80;;;;;;6168922;28;82948;-54
2020/12/24 02:38:47;;;;;;;15.35;10.13;;;22.90;41.80;;;;;;6177593;28;83240;-54
2020/12/24 02:41:48;;;;;;;17.85;10.40;;;22.90;41.80;;;;;;6173939;27;83560;-54
2020/12/24 02:44:48;;;;;;;15.98;9.90;;;22.90;41.80;;;;;;6178443;28;83124;-52
2020/12/24 02:47:49;;;;;;;15.52;10.40;;;22.90;41.90;;;;;;6180813;27;83984;-54
2020/12/24 02:50:49;;;;;;;15.85;9.95;;;22.90;41.70;;;;;;6183526;28;83591;-53
2020/12/24 02:53:50;;;;;;;19.05;10.70;;;22.90;41.90;;;;;;6186892;28;84007;-51
2020/12/24 02:56:50;;;;;;;19.13;11.15;;;22.90;41.80;;;;;;6178484;27;83726;-51
2020/12/24 02:59:51;;;;;;;16.80;10.32;;;22.90;41.90;;;;;;6174435;28;84431;-52
2020/12/24 03:02:52;;;;;;;14.40;9.45;;;22.90;41.60;;;;;;6183530;27;83590;-48
2020/12/24 03:05:52;;;;;;;15.73;9.95;;;22.90;41.80;;;;;;6181120;28;82889;-53
2020/12/24 03:08:53;;;;;;;18.65;10.70;;;22.90;42.10;;;;;;6181407;27;80295;-48
2020/12/24 03:11:53;;;;;;;16.30;10.38;;;22.90;41.80;;;;;;6176649;28;83183;-54
2020/12/24 03:14:54;;;;;;;15.25;9.38;;;22.90;41.70;;;;;;6171832;28;83028;-54
2020/12/24 03:17:54;;;;;;;17.02;10.00;;;22.90;42.20;;;;;;6178903;28;82969;-54
2020/12/24 03:20:55;;;;;;;16.02;9.32;;;22.90;42.30;;;;;;6179044;27;83189;-52
2020/12/24 03:23:55;;;;;;;16.45;10.00;;;22.90;42.20;;;;;;6163149;28;83467;-54
2020/12/24 03:26:56;;;;;;;15.18;9.45;;;22.90;42.10;;;;;;6177887;28;83493;-51
2020/12/24 03:29:56;;;;;;;17.35;10.00;;;22.90;42.20;;;;;;6186187;28;83094;-53
2020/12/24 03:32:57;;;;;;;15.07;9.02;;;22.90;41.80;;;;;;6177501;27;83224;-53
2020/12/24 03:35:57;;;;;;;20.40;10.07;;;22.90;41.70;;;;;;6181464;28;84159;-54
2020/12/24 03:38:58;;;;;;;17.42;8.73;;;22.90;42.20;;;;;;6177822;27;83442;-54
2020/12/24 03:41:59;;;;;;;16.27;8.40;;;22.90;42.40;;;;;;6178578;28;81054;-53
2020/12/24 03:45:00;;;;;;;16.90;9.63;;;22.90;42.30;;;;;;6171486;28;80480;-55
2020/12/24 03:48:00;;;;;;;12.63;7.68;;;22.90;42.60;;;;;;6163745;28;80975;-54
2020/12/24 03:51:01;;;;;;;11.80;7.80;;;22.90;43.10;;;;;;6164458;28;80861;-54
2020/12/24 03:54:01;;;;;;;9.02;6.03;;;22.90;42.70;;;;;;6172810;28;83937;-54
2020/12/24 03:57:02;;;;;;;12.07;6.90;;;22.90;43.10;;;;;;6174058;28;80580;-53
2020/12/24 04:00:02;;;;;;;13.13;7.45;;;22.90;43.10;;;;;;6172222;28;80696;-54
2020/12/24 04:03:06;;;;;;;12.48;7.28;;;22.90;42.70;;;;;;6180321;27;80120;-53
2020/12/24 04:06:06;;;;;;;12.13;7.00;;;22.90;43.30;;;;;;6180036;28;80520;-54
2020/12/24 04:09:07;;;;;;;10.95;7.07;;;22.90;43.50;;;;;;6183955;27;81219;-51
2020/12/24 04:12:07;;;;;;;13.00;7.35;;;22.90;42.60;;;;;;6179500;28;80671;-53
2020/12/24 04:15:08;;;;;;;13.77;6.43;;;22.90;42.60;;;;;;6179780;28;80272;-53
2020/12/24 04:18:08;;;;;;;10.88;5.82;;;22.90;42.50;;;;;;6179770;27;80968;-53
2020/12/24 04:21:09;;;;;;;10.20;6.40;;;22.90;43.90;;;;;;6179808;28;80637;-53
2020/12/24 04:24:09;;;;;;;9.55;6.38;;;23.00;43.10;;;;;;6181448;27;80915;-54
2020/12/24 04:27:10;;;;;;;10.30;5.95;;;23.00;42.10;;;;;;6181379;28;80709;-51
2020/12/24 04:30:10;;;;;;;8.35;5.53;;;23.00;42.10;;;;;;6183752;28;80631;-51
2020/12/24 04:33:11;;;;;;;10.30;6.68;;;23.00;42.10;;;;;;6190651;28;80417;-51
2020/12/24 04:36:11;;;;;;;11.23;6.85;;;23.10;42.60;;;;;;6183999;28;81336;-51
2020/12/24 04:39:12;;;;;;;11.40;6.60;;;23.10;42.00;;;;;;6179483;28;81505;-55
2020/12/24 04:42:12;;;;;;;10.20;6.25;;;23.10;41.90;;;;;;6181392;28;81509;-53
2020/12/24 04:45:13;;;;;;;8.55;5.88;;;23.20;41.90;;;;;;6165003;27;82021;-53
2020/12/24 04:48:13;;;;;;;10.10;5.22;;;23.20;41.80;;;;;;6187742;28;80591;-54
2020/12/24 04:51:15;;;;;;;8.82;5.65;;;23.20;41.70;;;;;;6172081;27;80445;-54
2020/12/24 04:54:15;;;;;;;9.75;5.90;;;23.20;41.70;;;;;;6183385;28;81281;-53
2020/12/24 04:57:16;;;;;;;7.97;4.95;;;23.30;41.70;;;;;;6187793;28;82317;-54
2020/12/24 05:00:16;;;;;;;6.80;4.97;;;23.30;41.60;;;;;;6182968;28;81497;-51
2020/12/24 05:03:17;;;;;;;9.43;5.35;;;23.30;41.60;;;;;;6188605;27;80729;-55
2020/12/24 05:06:17;;;;;;;6.82;4.72;;;23.30;41.50;;;;;;6186762;28;80519;-52
2020/12/24 05:09:18;;;;;;;6.63;4.30;;;23.40;41.50;;;;;;6185952;27;80789;-54
2020/12/24 05:12:18;;;;;;;7.45;4.22;;;23.40;41.60;;;;;;6191497;28;82714;-54
2020/12/24 05:15:19;;;;;;;5.97;3.72;;;23.40;41.60;;;;;;6191817;27;81353;-54
2020/12/24 05:18:22;;;;;;;5.82;3.80;;;23.40;41.80;;;;;;6187629;28;80691;-51
2020/12/24 05:21:22;;;;;;;5.90;3.97;;;23.40;41.90;;;;;;6169501;27;80551;-53
2020/12/24 05:24:23;;;;;;;5.90;3.78;;;23.40;42.00;;;;;;6179927;28;80359;-54
2020/12/24 05:27:23;;;;;;;5.60;3.53;;;23.40;42.20;;;;;;6178026;27;83922;-53
2020/12/24 05:30:24;;;;;;;5.68;3.85;;;23.40;42.10;;;;;;6180799;28;81142;-51
2020/12/24 05:33:24;;;;;;;6.22;3.65;;;23.50;42.40;;;;;;6187502;27;83758;-55
2020/12/24 05:36:25;;;;;;;5.82;3.45;;;23.50;42.60;;;;;;6154410;28;83931;-59
2020/12/24 05:39:25;;;;;;;10.23;3.10;;;23.50;42.90;;;;;;6174180;28;81017;-58
2020/12/24 05:42:26;;;;;;;6.25;3.28;;;23.60;43.40;;;;;;6160674;28;81151;-57
2020/12/24 05:45:26;;;;;;;7.65;3.20;;;23.70;43.60;;;;;;6175976;28;81485;-58
2020/12/24 05:48:27;;;;;;;7.60;2.90;;;23.70;43.60;;;;;;6181863;28;80480;-58
2020/12/24 05:51:27;;;;;;;3.88;2.55;;;23.70;43.80;;;;;;6182385;28;80999;-58
2020/12/24 05:54:28;;;;;;;6.35;2.78;;;23.70;43.70;;;;;;6180714;27;80631;-58
2020/12/24 05:57:28;;;;;;;6.65;3.22;;;23.70;43.70;;;;;;6178859;28;82201;-58
2020/12/24 06:00:29;;;;;;;3.97;2.42;;;23.80;43.80;;;;;;6182781;27;80791;-58
2020/12/24 06:03:29;;;;;;;4.72;2.78;;;23.80;44.20;;;;;;6182082;28;83899;-55
2020/12/24 06:06:30;;;;;;;5.43;2.75;;;23.80;44.50;;;;;;6180772;28;84551;-59
2020/12/24 06:09:30;;;;;;;3.50;2.50;;;23.80;44.70;;;;;;6173099;27;80686;-59
2020/12/24 06:12:31;;;;;;;5.80;2.78;;;23.80;45.00;;;;;;6181074;28;80359;-57
2020/12/24 06:15:31;;;;;;;8.10;2.67;;;23.80;45.60;;;;;;6171992;27;81864;-57
2020/12/24 06:18:32;;;;;;;5.43;2.72;;;23.90;46.20;;;;;;6180378;28;81024;-57
2020/12/24 06:21:33;;;;;;;9.00;3.08;;;23.90;46.60;;;;;;6181775;27;80584;-56
2020/12/24 06:24:33;;;;;;;7.28;3.55;;;24.00;46.90;;;;;;6174779;28;80546;-52
2020/12/24 06:27:34;;;;;;;6.18;3.33;;;23.90;47.10;;;;;;6177075;28;81854;-50
2020/12/24 06:30:34;;;;;;;8.82;3.58;;;24.00;47.60;;;;;;6181100;28;81016;-55
2020/12/24 06:33:35;;;;;;;5.38;3.33;;;24.00;47.70;;;;;;6180160;28;80622;-56
2020/12/24 06:36:35;;;;;;;8.52;4.18;;;24.00;47.40;;;;;;6179481;28;80420;-56
2020/12/24 06:39:36;;;;;;;7.53;4.07;;;24.00;47.40;;;;;;6178599;28;80832;-55
2020/12/24 06:42:37;;;;;;;5.63;3.10;;;23.90;47.20;;;;;;6174336;27;80791;-49
2020/12/24 06:45:37;;;;;;;11.85;3.58;;;23.90;47.10;;;;;;6178041;28;80652;-52
2020/12/24 06:48:38;;;;;;;8.45;4.72;;;24.00;47.70;;;;;;6182093;27;80743;-58
2020/12/24 06:51:38;;;;;;;9.13;3.78;;;24.00;47.40;;;;;;6177356;28;80309;-54
2020/12/24 06:54:39;;;;;;;4.60;3.40;;;24.00;47.80;;;;;;6170045;28;80080;-57
2020/12/24 06:57:39;;;;;;;6.85;3.60;;;24.00;46.70;;;;;;6167343;28;82122;-59
2020/12/24 07:00:40;;;;;;;7.03;3.47;;;24.00;47.00;;;;;;6177351;27;81790;-56
2020/12/24 07:03:40;;;;;;;6.10;3.25;;;24.00;46.80;;;;;;6173209;28;80426;-59
2020/12/24 07:06:41;;;;;;;6.00;3.28;;;24.00;46.80;;;;;;6179680;27;81667;-57
2020/12/24 07:09:42;;;;;;;9.00;3.40;;;24.00;46.90;;;;;;6176807;28;80674;-58
2020/12/24 07:12:42;;;;;;;4.65;3.03;;;24.00;47.10;;;;;;6190289;28;81716;-55
2020/12/24 07:15:43;;;;;;;8.32;4.28;;;24.00;46.50;;;;;;6185898;28;83932;-58
2020/12/24 07:18:44;;;;;;;6.50;3.00;;;24.00;47.40;;;;;;6178232;28;81790;-59
2020/12/24 07:21:44;;;;;;;6.60;4.07;;;24.00;47.10;;;;;;6183934;28;81664;-58
2020/12/24 07:24:45;;;;;;;6.40;3.40;;;23.90;46.90;;;;;;6178638;27;82245;-56
2020/12/24 07:27:45;;;;;;;4.88;3.00;;;23.90;46.80;;;;;;6174448;28;80808;-55
2020/12/24 07:30:46;;;;;;;8.52;3.35;;;23.90;47.20;;;;;;6174347;27;81080;-59
2020/12/24 07:33:46;;;;;;;9.75;2.95;;;23.90;46.80;;;;;;6170237;28;80659;-57
2020/12/24 07:36:47;;;;;;;5.47;3.03;;;23.80;46.60;;;;;;6173432;28;80793;-58
2020/12/24 07:39:47;;;;;;;7.75;2.70;;;23.80;47.00;;;;;;6178472;28;81359;-57
2020/12/24 07:42:48;;;;;;;4.57;2.88;;;23.80;46.60;;;;;;6169877;28;81454;-58
2020/12/24 07:45:48;;;;;;;6.43;2.97;;;23.80;45.90;;;;;;6179881;27;80776;-58
2020/12/24 07:48:49;;;;;;;4.25;2.72;;;23.80;46.00;;;;;;6179303;28;80904;-58
2020/12/24 07:51:49;;;;;;;7.13;3.22;;;23.80;46.00;;;;;;6174615;27;81006;-58
2020/12/24 07:54:50;;;;;;;5.13;2.83;;;23.80;46.30;;;;;;6178330;28;81101;-58
2020/12/24 07:57:50;;;;;;;10.05;2.85;;;23.80;46.40;;;;;;6176385;28;80631;-56
2020/12/24 08:00:55;;;;;;;9.35;3.38;;;23.80;46.40;;;;;;6178690;28;80819;-56
2020/12/24 08:03:55;;;;;;;8.35;2.70;;;23.90;46.70;;;;;;6153388;28;80633;-59
2020/12/24 08:06:56;;;;;;;8.05;2.60;;;23.80;67.70;;;;;;6173079;28;80541;-61
2020/12/24 08:09:57;;;;;;;10.50;3.22;;;24.40;54.10;;;;;;6153375;28;80791;-62
2020/12/24 08:12:57;;;;;;;9.38;2.85;;;23.90;46.90;;;;;;6177447;28;82406;-62
2020/12/24 08:15:58;;;;;;;5.85;2.80;;;23.90;47.00;;;;;;6177797;27;81550;-62
2020/12/24 08:18:58;;;;;;;7.65;2.72;;;23.90;47.40;;;;;;6178023;28;80952;-63
2020/12/24 08:21:59;;;;;;;13.80;2.78;;;23.90;46.70;;;;;;6178510;28;80446;-63
2020/12/24 08:24:59;;;;;;;7.68;3.10;;;23.90;46.40;;;;;;6179197;27;80963;-64
2020/12/24 08:27:59;;;;;;;5.40;2.88;;;23.90;46.50;;;;;;6176483;28;80473;-61
2020/12/24 08:31:00;;;;;;;12.05;2.90;;;23.90;46.70;;;;;;6176931;28;86417;-49
2020/12/24 08:34:01;;;;;;;4.43;2.80;;;23.90;47.20;;;;;;6170960;28;80228;-64
2020/12/24 08:37:01;;;;;;;5.60;2.90;;;23.90;46.70;;;;;;6171531;28;84289;-61
2020/12/24 08:40:02;;;;;;;12.18;3.08;;;23.90;46.90;;;;;;6175214;27;80863;-59
2020/12/24 08:43:02;;;;;;;18.42;2.88;;;23.90;46.60;;;;;;6176009;28;80444;-61
2020/12/24 08:46:03;;;;;;;7.13;2.88;;;23.90;46.20;;;;;;6177169;28;80457;-60
2020/12/24 08:49:03;;;;;;;16.42;3.10;;;24.00;45.10;;;;;;6177156;28;81423;-66
2020/12/24 08:52:04;;;;;;;6.78;2.70;;;24.00;45.30;;;;;;6177125;27;82037;-61
2020/12/24 08:55:04;;;;;;;8.32;3.03;;;24.00;44.90;;;;;;6174634;28;80874;-62
2020/12/24 08:58:05;;;;;;;6.97;3.67;;;24.00;45.20;;;;;;6186989;28;81289;-60
2020/12/24 09:01:05;;;;;;;11.93;4.30;;;23.90;44.00;;;;;;6185461;28;80611;-62
2020/12/24 09:04:06;;;;;;;16.58;5.13;;;23.80;45.10;;;;;;6188139;28;80675;-59
2020/12/24 09:07:06;;;;;;;9.68;5.57;;;23.80;44.40;;;;;;6193729;28;80730;-61
2020/12/24 09:10:07;;;;;;;16.88;6.95;;;23.90;44.30;;;;;;6190147;27;80616;-61
2020/12/24 09:13:07;;;;;;;11.60;7.10;;;23.80;43.90;;;;;;6176497;28;81584;-62
2020/12/24 09:16:08;;;;;;;14.02;8.00;;;23.80;43.50;;;;;;6180935;27;81378;-61
2020/12/24 09:19:08;;;;;;;12.32;7.80;;;23.80;42.90;;;;;;6181447;28;80587;-61
2020/12/24 09:22:09;;;;;;;12.25;7.95;;;23.80;42.90;;;;;;6179875;27;80586;-62
2020/12/24 09:25:09;;;;;;;14.55;7.40;;;23.80;43.10;;;;;;6181149;28;80989;-61
2020/12/24 09:28:10;;;;;;;11.68;7.78;;;23.80;43.10;;;;;;6180255;28;81357;-62
2020/12/24 09:31:10;;;;;;;14.73;7.68;;;23.80;43.50;;;;;;6181254;28;80961;-58
2020/12/24 09:34:11;;;;;;;12.15;8.23;;;23.70;42.60;;;;;;6151296;28;80607;-56
2020/12/24 09:37:11;;;;;;;12.73;7.28;;;23.70;42.60;;;;;;6152878;28;83448;-56
2020/12/24 09:40:12;;;;;;;13.75;6.93;;;23.80;42.70;;;;;;6153751;28;80473;-58
2020/12/24 09:43:12;;;;;;;13.98;7.50;;;23.80;42.70;;;;;;6153714;28;81740;-56
2020/12/24 09:46:13;;;;;;;14.70;7.10;;;23.80;42.90;;;;;;6150434;27;81566;-57
2020/12/24 09:49:13;;;;;;;12.35;6.57;;;23.90;43.20;;;;;;6155406;28;80781;-54
2020/12/24 09:52:14;;;;;;;14.82;7.30;;;23.90;43.40;;;;;;6180445;28;83685;-56
2020/12/24 09:55:15;;;;;;;25.02;9.00;;;23.90;43.90;;;;;;6180649;27;80439;-55
2020/12/24 09:58:15;;;;;;;57.88;18.35;;;23.90;44.30;;;;;;6177021;28;83459;-55
2020/12/24 10:01:16;;;;;;;106.95;25.63;;;24.00;45.40;;;;;;6175779;27;83069;-53
2020/12/24 10:04:16;;;;;;;98.82;28.17;;;24.00;46.00;;;;;;6167041;28;83112;-51
2020/12/24 10:07:17;;;;;;;120.00;29.58;;;24.10;46.80;;;;;;6145314;28;83456;-55
2020/12/24 10:10:17;;;;;;;117.75;33.08;;;24.10;47.20;;;;;;6160735;28;84013;-54
2020/12/24 10:13:18;;;;;;;114.70;31.30;;;24.10;48.30;;;;;;6174621;28;84353;-55
2020/12/24 10:16:18;;;;;;;118.85;33.80;;;24.10;50.00;;;;;;6177908;28;83710;-55
2020/12/24 10:19:19;;;;;;;117.95;30.88;;;24.20;51.10;;;;;;6175135;27;83550;-53
2020/12/24 10:22:20;;;;;;;102.57;29.35;;;24.20;50.90;;;;;;6173707;28;83407;-55
2020/12/24 10:25:21;;;;;;;99.55;27.70;;;24.30;50.70;;;;;;6173650;27;83804;-55
2020/12/24 10:28:21;;;;;;;88.40;26.25;;;24.20;50.60;;;;;;6175107;28;84855;-55
2020/12/24 10:31:22;;;;;;;99.72;26.65;;;24.20;50.90;;;;;;6171285;28;83825;-55
2020/12/24 10:34:22;;;;;;;86.95;25.48;;;24.30;50.30;;;;;;6168611;28;83744;-59
2020/12/24 10:37:23;;;;;;;84.07;23.80;;;24.30;50.10;;;;;;6176407;28;83709;-55
2020/12/24 10:40:23;;;;;;;66.18;22.08;;;24.30;49.80;;;;;;6166807;28;83782;-53
2020/12/24 10:43:27;;;;;;;74.18;22.42;;;24.30;49.40;;;;;;6170385;28;83359;-58
2020/12/24 10:46:27;;;;;;;65.43;18.90;;;24.30;49.70;;;;;;6175333;28;82995;-59
2020/12/24 10:49:28;;;;;;;52.75;16.83;;;24.20;49.00;;;;;;6172884;28;83266;-56
2020/12/24 10:52:28;;;;;;;49.05;16.52;;;24.10;48.60;;;;;;6173754;28;84636;-58
2020/12/24 10:55:29;;;;;;;54.13;16.85;;;24.10;48.40;;;;;;6175976;27;83110;-58
2020/12/24 10:58:29;;;;;;;44.95;16.67;;;24.00;48.30;;;;;;6169334;28;83084;-56
2020/12/24 11:01:30;;;;;;;45.58;14.43;;;24.00;47.90;;;;;;6172933;28;88128;-57
2020/12/24 11:04:31;;;;;;;41.75;14.18;;;23.90;47.90;;;;;;6173083;28;83110;-58
2020/12/24 11:07:31;;;;;;;43.67;13.73;;;23.90;47.70;;;;;;6167280;27;84746;-57
2020/12/24 11:10:32;;;;;;;35.80;12.43;;;23.90;47.40;;;;;;6153721;28;83685;-58
2020/12/24 11:13:32;;;;;;;37.50;13.35;;;23.90;47.20;;;;;;6170946;27;83943;-56
2020/12/24 11:16:33;;;;;;;34.63;12.45;;;23.80;46.90;;;;;;6150506;28;84303;-58
2020/12/24 11:19:33;;;;;;;32.65;11.43;;;23.80;46.80;;;;;;6154610;28;83583;-58
2020/12/24 11:22:34;;;;;;;34.15;10.85;;;23.80;46.60;;;;;;6177124;28;83500;-59
2020/12/24 11:25:35;;;;;;;31.42;9.88;;;23.80;46.50;;;;;;6192838;28;82907;-56
2020/12/24 11:28:35;;;;;;;24.08;9.25;;;23.80;46.20;;;;;;6162302;28;84848;-59
2020/12/24 11:31:36;;;;;;;25.42;9.05;;;23.80;46.20;;;;;;6157900;28;80758;-59
2020/12/24 11:34:36;;;;;;;25.85;9.35;;;23.80;46.30;;;;;;6180232;28;83192;-59
2020/12/24 11:37:38;;;;;;;28.48;9.10;;;23.90;46.90;;;;;;6177009;27;81724;-57
2020/12/24 11:40:39;;;;;;;21.33;7.85;;;23.90;47.40;;;;;;6177068;28;80994;-53
2020/12/24 11:43:39;;;;;;;24.75;8.35;;;23.90;47.80;;;;;;6177625;27;81183;-52
2020/12/24 11:46:40;;;;;;;19.23;7.75;;;23.90;47.60;;;;;;6177914;28;81017;-53
2020/12/24 11:49:40;;;;;;;20.52;7.63;;;23.90;47.50;;;;;;6176914;27;81345;-56
2020/12/24 11:52:41;;;;;;;17.67;5.97;;;23.90;47.10;;;;;;6178986;28;81922;-54
2020/12/24 11:55:41;;;;;;;15.55;5.97;;;23.80;46.50;;;;;;6178445;27;81022;-52
2020/12/24 11:58:42;;;;;;;19.35;6.07;;;23.80;46.60;;;;;;6177924;28;81591;-55
2020/12/24 12:01:42;;;;;;;12.27;6.05;;;23.80;46.20;;;;;;6178873;28;80695;-61
2020/12/24 12:04:43;;;;;;;14.07;5.70;;;23.90;46.40;;;;;;6170561;28;81518;-61
2020/12/24 12:07:43;;;;;;;14.52;5.25;;;23.90;46.30;;;;;;6174989;27;82454;-62
2020/12/24 12:10:44;;;;;;;16.98;5.65;;;23.90;46.00;;;;;;6177065;28;80310;-62
2020/12/24 12:13:47;;;;;;;14.48;6.03;;;23.90;46.00;;;;;;6169791;27;81073;-63
2020/12/24 12:16:47;;;;;;;10.90;4.68;;;23.90;45.90;;;;;;6163474;28;80725;-62
2020/12/24 12:19:48;;;;;;;14.68;5.82;;;23.90;45.70;;;;;;6167412;28;85134;-62
2020/12/24 12:22:48;;;;;;;11.70;4.80;;;23.90;45.40;;;;;;6172990;28;80737;-62
2020/12/24 12:25:49;;;;;;;9.45;4.28;;;23.90;45.30;;;;;;6178395;28;80735;-62
2020/12/24 12:28:49;;;;;;;9.07;4.00;;;23.80;43.70;;;;;;6177592;27;82922;-61
2020/12/24 12:31:51;;;;;;;6.97;3.28;;;23.80;44.00;;;;;;6172343;28;80748;-61
2020/12/24 12:34:51;;;;;;;10.20;3.60;;;23.80;43.70;;;;;;6169607;27;80855;-66
2020/12/24 12:37:52;;;;;;;7.35;3.50;;;23.80;43.30;;;;;;6173394;28;80984;-62
2020/12/24 12:40:52;;;;;;;7.18;3.67;;;23.80;43.10;;;;;;6172581;27;81596;-62
2020/12/24 12:43:55;;;;;;;7.10;2.63;;;23.70;42.20;;;;;;6177212;28;80971;-63
2020/12/24 12:46:55;;;;;;;7.22;3.30;;;23.80;42.40;;;;;;6168298;27;81657;-63
2020/12/24 12:49:56;;;;;;;5.32;3.05;;;23.80;42.20;;;;;;6179192;28;81214;-61
2020/12/24 12:52:57;;;;;;;6.13;3.10;;;23.80;42.40;;;;;;6173471;27;80235;-63
2020/12/24 12:55:57;;;;;;;6.70;3.17;;;23.80;42.30;;;;;;6184044;28;80567;-64
2020/12/24 12:58:58;;;;;;;7.60;2.78;;;23.70;42.20;;;;;;6176336;27;80670;-64
2020/12/24 13:01:58;;;;;;;5.72;2.97;;;23.70;42.30;;;;;;6180203;28;80505;-63
2020/12/24 13:04:59;;;;;;;5.00;3.00;;;23.70;42.50;;;;;;6177583;27;80947;-64
2020/12/24 13:07:59;;;;;;;6.07;3.15;;;23.80;42.40;;;;;;6181609;28;81228;-61
2020/12/24 13:11:00;;;;;;;4.70;2.67;;;23.70;42.80;;;;;;6176670;28;80633;-61
2020/12/24 13:14:00;;;;;;;4.95;2.88;;;23.70;42.20;;;;;;6181560;28;80461;-62
2020/12/24 13:17:01;;;;;;;5.18;2.72;;;23.80;42.30;;;;;;6180625;28;81268;-61
2020/12/24 13:20:01;;;;;;;4.72;2.72;;;23.80;42.30;;;;;;6181950;27;80679;-61
2020/12/24 13:23:02;;;;;;;7.18;2.75;;;23.80;42.30;;;;;;6180211;28;81022;-62
2020/12/24 13:26:02;;;;;;;5.85;2.53;;;23.80;42.30;;;;;;6180059;27;81234;-61
2020/12/24 13:29:03;;;;;;;5.15;2.80;;;23.90;42.30;;;;;;6172814;28;80761;-59
2020/12/24 13:32:03;;;;;;;7.80;3.58;;;23.90;42.60;;;;;;6178770;27;80463;-59
2020/12/24 13:35:07;;;;;;;25.23;3.42;;;24.00;43.00;;;;;;6177124;28;82030;-47
2020/12/24 13:38:07;;;;;;;5.28;2.95;;;24.20;43.40;;;;;;6174411;28;80873;-49
2020/12/24 13:41:08;;;;;;;8.20;3.00;;;24.30;42.90;;;;;;6179810;28;80812;-47
2020/12/24 13:44:08;;;;;;;7.53;3.13;;;24.40;43.20;;;;;;6181178;27;83305;-44
2020/12/24 13:47:09;;;;;;;6.05;3.08;;;24.60;43.30;;;;;;6179397;28;80541;-46
2020/12/24 13:50:10;;;;;;;7.10;3.05;;;24.50;43.00;;;;;;6177953;27;80681;-47
2020/12/24 13:53:10;;;;;;;6.20;3.40;;;24.60;42.90;;;;;;6178768;28;81169;-48
2020/12/24 13:56:11;;;;;;;5.05;2.80;;;24.60;42.90;;;;;;6160145;27;81023;-51
2020/12/24 13:59:11;;;;;;;5.32;2.70;;;24.60;43.50;;;;;;6179906;28;80780;-48
2020/12/24 14:02:12;;;;;;;5.50;3.25;;;24.60;43.70;;;;;;6181056;28;81099;-53
2020/12/24 14:05:12;;;;;;;5.53;3.10;;;24.60;43.80;;;;;;6181173;28;80622;-48
2020/12/24 14:08:13;;;;;;;6.05;3.28;;;24.60;44.00;;;;;;6180322;28;84599;-50
2020/12/24 14:11:14;;;;;;;6.60;3.00;;;24.60;45.00;;;;;;6179036;28;80123;-50
2020/12/24 14:14:14;;;;;;;7.47;3.55;;;24.60;45.10;;;;;;6177329;28;80570;-49
2020/12/24 14:17:15;;;;;;;7.25;3.20;;;24.50;45.30;;;;;;6180185;28;81058;-54
2020/12/24 14:20:17;;;;;;;8.70;3.40;;;24.50;45.60;;;;;;6174476;28;80769;-51
2020/12/24 14:23:17;;;;;;;6.85;3.30;;;24.50;45.80;;;;;;6180216;28;80272;-50
2020/12/24 14:26:18;;;;;;;6.95;3.45;;;24.50;46.00;;;;;;6178149;27;80517;-50
2020/12/24 14:29:18;;;;;;;7.68;3.60;;;24.50;46.10;;;;;;6178182;28;80420;-48
2020/12/24 14:32:19;;;;;;;6.00;3.13;;;24.50;45.70;;;;;;6178842;27;81429;-50
2020/12/24 14:35:20;;;;;;;6.35;3.63;;;24.40;45.50;;;;;;6178400;28;81970;-49
2020/12/24 14:38:20;;;;;;;7.68;3.40;;;24.40;45.40;;;;;;6178431;27;80437;-50
2020/12/24 14:41:21;;;;;;;6.22;3.47;;;24.40;45.10;;;;;;6178713;28;83586;-51
2020/12/24 14:44:21;;;;;;;5.68;3.72;;;24.40;44.80;;;;;;6179403;28;80664;-52
2020/12/24 14:47:22;;;;;;;10.05;4.13;;;24.40;44.50;;;;;;6179249;28;80511;-51
2020/12/24 14:50:22;;;;;;;7.93;4.30;;;24.30;44.30;;;;;;6179494;27;80799;-52
2020/12/24 14:53:23;;;;;;;8.48;4.07;;;24.40;44.00;;;;;;6176883;28;80916;-52
2020/12/24 14:56:23;;;;;;;8.20;4.00;;;24.30;43.70;;;;;;6169790;27;82017;-51
2020/12/24 14:59:24;;;;;;;6.38;4.18;;;24.30;43.50;;;;;;6177676;28;80617;-50
2020/12/24 15:02:24;;;;;;;9.68;5.07;;;24.30;43.40;;;;;;6180609;27;80330;-57
2020/12/24 15:05:25;;;;;;;8.65;4.28;;;24.30;43.40;;;;;;6177812;28;80938;-55
2020/12/24 15:08:25;;;;;;;13.65;5.13;;;24.20;43.20;;;;;;6179199;27;80161;-56
2020/12/24 15:11:26;;;;;;;9.88;4.40;;;24.20;43.40;;;;;;6174406;28;80826;-52
2020/12/24 15:14:27;;;;;;;7.85;4.20;;;24.10;43.00;;;;;;6179049;27;80928;-55
2020/12/24 15:17:28;;;;;;;13.75;4.85;;;24.10;43.10;;;;;;6177573;28;81768;-55
2020/12/24 15:20:28;;;;;;;8.73;4.78;;;24.10;43.10;;;;;;6178887;28;80675;-53
2020/12/24 15:23:29;;;;;;;11.70;5.00;;;24.10;42.80;;;;;;6174472;28;80840;-56
2020/12/24 15:26:29;;;;;;;9.35;4.78;;;24.10;42.80;;;;;;6178729;27;81008;-55
2020/12/24 15:29:30;;;;;;;8.52;4.75;;;24.00;42.80;;;;;;6178491;28;80719;-54